Saint Peters, Missouri
Current Conditions -  °F | °C
As of 1:54 AM on Monday 22 Dec 2014 (Local Time) from KSUS Reporting Station
Overcast Overcast  
Wind Chill: 39°   Ceiling: 4800
Heat Index: 42°   Visibility: 10mi
Dew Point: 31°   Wind: 5mph
Humidity: 65%   Direction: 110°ESE
Pressure: 29.88"   Gusts: NA
Location:  38.8°N, 90.63°W
Report Text: KSUS 220754Z AUTO 11004KT 10SM OVC048 06/M01 A2988 RMK AO2 SLP120 T00561006
Loading
Personal Weather Stations






























Interactive Weather Map New forecast layout! Learn more

10-Day Weather Forecast

Advertisements
Track Severe Weather on mobile